Time;durP1;ratioP1;P1;durP2;ratioP2;P2;SDS_P1;SDS_P2;PMS_P1;PMS_P2;Temp;Humidity;BMP_temperature;BMP_pressure;BME280_temperature;BME280_humidity;BME280_pressure;Samples;Min_cycle;Max_cycle;Signal;HPM_P1;HPM_P2
2022/02/21 00:01:46;;;;;;;;;;;;;;;10.04;80.60;98492.78;1738483;82;21004;-82
2022/02/21 00:04:12;;;;;;;;;;;;;;;9.79;81.29;98491.59;1737077;81;20123;-83
2022/02/21 00:06:37;;;;;;;;;;;;;;;9.66;81.92;98476.02;1735715;82;20137;-83
2022/02/21 00:09:03;;;;;;;;;;;;;;;9.82;80.59;98488.56;1736021;82;20165;-82
2022/02/21 00:11:28;;;;;;;;;;;;;;;9.95;80.52;98476.00;1736361;81;20180;-82
2022/02/21 00:13:54;;;;;;;;;;;;;;;10.06;79.99;98463.58;1736019;82;22398;-83
2022/02/21 00:16:20;;;;;;;;;;;;;;;10.19;79.57;98454.91;1737391;82;20592;-83
2022/02/21 00:18:45;;;;;;;;;;;;;;;9.81;80.75;98461.91;1740217;82;20158;-82
2022/02/21 00:21:11;;;;;;;;;;;;;;;9.73;80.63;98442.30;1738563;81;20469;-83
2022/02/21 00:23:36;;;;;;;;;;;;;;;9.61;81.66;98442.80;1741362;81;20130;-82
2022/02/21 00:26:02;;;;;;;;;;;;;;;9.99;80.01;98444.25;1737491;82;21143;-82
2022/02/21 00:28:28;;;;;;;;;;;;;;;9.82;80.45;98468.79;1758915;80;20154;-83
2022/02/21 00:30:53;;;;;;;;;;;;;;;9.88;80.22;98439.86;1763605;79;20573;-83
2022/02/21 00:33:19;;;;;;;;;;;;;;;9.84;80.34;98432.53;1763723;81;20115;-83
2022/02/21 00:35:45;;;;;;;;;;;;;;;9.80;80.38;98428.64;1759254;80;20653;-84
2022/02/21 00:38:11;;;;;;;;;;;;;;;9.77;80.81;98419.80;1760219;80;21159;-84
2022/02/21 00:40:36;;;;;;;;;;;;;;;9.87;80.15;98417.64;1725845;81;20153;-84
2022/02/21 00:43:02;;;;;;;;;;;;;;;9.91;79.70;98408.31;1760485;80;20183;-83
2022/02/21 00:45:28;;;;;;;;;;;;;;;9.72;80.66;98411.15;1760730;80;20466;-82
2022/02/21 00:47:53;;;;;;;;;;;;;;;10.15;79.09;98408.34;1759639;80;20553;-83
2022/02/21 00:50:19;;;;;;;;;;;;;;;9.88;79.88;98400.79;1734610;81;21069;-84
2022/02/21 00:52:44;;;;;;;;;;;;;;;10.02;79.04;98397.23;1757474;80;20353;-84
2022/02/21 00:55:10;;;;;;;;;;;;;;;10.17;79.05;98393.63;1762225;80;20160;-83
2022/02/21 00:57:36;;;;;;;;;;;;;;;10.04;79.00;98395.20;1762435;79;20177;-83
2022/02/21 01:00:02;;;;;;;;;;;;;;;10.21;78.21;98392.24;1767267;80;20155;-84
2022/02/21 01:02:28;;;;;;;;;;;;;;;9.96;79.06;98381.36;1763589;80;21060;-84
2022/02/21 01:04:54;;;;;;;;;;;;;;;10.04;79.24;98367.52;1763124;80;20188;-84
2022/02/21 01:07:19;;;;;;;;;;;;;;;10.13;78.68;98355.47;1761706;80;20478;-84
2022/02/21 01:09:45;;;;;;;;;;;;;;;10.13;78.94;98375.25;1763109;80;21132;-84
2022/02/21 01:12:10;;;;;;;;;;;;;;;10.27;78.47;98358.96;1759016;80;20160;-84
2022/02/21 01:14:36;;;;;;;;;;;;;;;10.20;78.72;98354.48;1747417;79;21163;-83
2022/02/21 01:17:02;;;;;;;;;;;;;;;10.27;78.28;98357.16;1768356;80;20180;-84
2022/02/21 01:19:28;;;;;;;;;;;;;;;10.30;78.26;98361.20;1759083;80;20301;-84
2022/02/21 01:21:53;;;;;;;;;;;;;;;10.23;78.30;98346.17;1761540;80;20623;-84
2022/02/21 01:24:19;;;;;;;;;;;;;;;10.43;78.13;98334.09;1755168;80;20120;-84
2022/02/21 01:26:44;;;;;;;;;;;;;;;10.15;78.85;98335.80;1759564;80;20959;-83
2022/02/21 01:29:10;;;;;;;;;;;;;;;10.19;78.71;98323.86;1755184;80;20136;-84
2022/02/21 01:31:35;;;;;;;;;;;;;;;10.30;78.27;98318.50;1762241;80;20135;-84
2022/02/21 01:34:01;;;;;;;;;;;;;;;10.15;79.11;98320.49;1763391;80;20193;-84
2022/02/21 01:36:27;;;;;;;;;;;;;;;10.12;79.83;98309.83;1762399;79;20426;-83
2022/02/21 01:38:53;;;;;;;;;;;;;;;10.30;79.44;98299.20;1751315;80;21334;-84
2022/02/21 01:41:18;;;;;;;;;;;;;;;10.27;79.25;98297.80;1762853;80;20192;-83
2022/02/21 01:43:45;;;;;;;;;;;;;;;10.23;79.95;98280.73;1767945;80;20605;-83
2022/02/21 01:46:10;;;;;;;;;;;;;;;9.92;81.38;98280.75;1759804;80;20181;-83
2022/02/21 01:48:36;;;;;;;;;;;;;;;10.20;80.90;98287.73;1765412;80;20241;-84
2022/02/21 01:51:02;;;;;;;;;;;;;;;10.32;80.62;98272.94;1765546;79;21139;-83
2022/02/21 01:53:27;;;;;;;;;;;;;;;10.36;80.77;98274.20;1758878;80;20177;-84
2022/02/21 01:55:53;;;;;;;;;;;;;;;10.31;81.03;98260.75;1761690;79;20127;-84
2022/02/21 01:58:19;;;;;;;;;;;;;;;10.39;80.62;98254.50;1759346;80;21106;-84
2022/02/21 02:00:44;;;;;;;;;;;;;;;10.25;81.12;98251.00;1762065;80;20131;-84
2022/02/21 02:03:10;;;;;;;;;;;;;;;10.36;81.11;98250.95;1763337;80;21313;-84
2022/02/21 02:05:36;;;;;;;;;;;;;;;10.40;80.91;98243.74;1766271;80;20161;-83
2022/02/21 02:08:01;;;;;;;;;;;;;;;10.30;80.98;98230.13;1768918;80;20238;-82
2022/02/21 02:10:27;;;;;;;;;;;;;;;10.54;80.55;98230.56;1766449;79;20161;-82
2022/02/21 02:12:53;;;;;;;;;;;;;;;10.65;80.05;98222.02;1762576;80;20175;-83
2022/02/21 02:15:19;;;;;;;;;;;;;;;10.29;81.70;98217.94;1760666;80;21003;-83
2022/02/21 02:17:44;;;;;;;;;;;;;;;10.24;81.77;98194.80;1760825;80;20356;-82
2022/02/21 02:20:11;;;;;;;;;;;;;;;10.35;82.19;98201.33;1762360;79;20788;-81
2022/02/21 02:22:39;;;;;;;;;;;;;;;10.42;81.87;98209.23;1762002;80;20618;-82
2022/02/21 02:25:05;;;;;;;;;;;;;;;10.50;82.01;98196.34;1761729;80;20208;-82
2022/02/21 02:27:30;;;;;;;;;;;;;;;10.48;82.15;98193.11;1766235;79;21157;-82
2022/02/21 02:29:59;;;;;;;;;;;;;;;10.45;82.70;98206.71;1765847;79;20157;-82
2022/02/21 02:32:24;;;;;;;;;;;;;;;10.17;84.03;98188.70;1761207;79;20479;-83
2022/02/21 02:34:52;;;;;;;;;;;;;;;10.38;83.11;98175.86;1764580;80;20146;-83
2022/02/21 02:37:20;;;;;;;;;;;;;;;10.24;83.67;98180.81;1759162;80;20199;-83
2022/02/21 02:39:45;;;;;;;;;;;;;;;10.17;84.44;98162.33;1769086;80;21260;-83
2022/02/21 02:42:11;;;;;;;;;;;;;;;10.38;84.07;98162.67;1759310;80;20143;-83
2022/02/21 02:44:36;;;;;;;;;;;;;;;10.51;83.90;98149.16;1765335;80;20169;-82
2022/02/21 02:47:06;;;;;;;;;;;;;;;10.29;84.34;98141.44;1755396;80;20107;-84
2022/02/21 02:49:32;;;;;;;;;;;;;;;10.44;83.85;98145.22;1762740;80;20129;-84
2022/02/21 02:51:57;;;;;;;;;;;;;;;10.46;83.80;98146.33;1768329;80;21092;-82
2022/02/21 02:54:23;;;;;;;;;;;;;;;10.39;84.14;98126.05;1766311;79;20185;-82
2022/02/21 02:56:49;;;;;;;;;;;;;;;10.31;84.67;98117.48;1737444;80;20459;-83
2022/02/21 02:59:14;;;;;;;;;;;;;;;10.26;84.83;98112.83;1764800;80;20613;-83
2022/02/21 03:01:40;;;;;;;;;;;;;;;10.12;85.55;98112.53;1762015;80;20173;-83
2022/02/21 03:04:06;;;;;;;;;;;;;;;9.85;86.34;98112.50;1755704;80;21177;-82
2022/02/21 03:06:32;;;;;;;;;;;;;;;10.18;85.82;98106.45;1756655;80;20496;-83
2022/02/21 03:08:58;;;;;;;;;;;;;;;10.27;85.47;98095.99;1764292;80;20182;-83
2022/02/21 03:11:23;;;;;;;;;;;;;;;10.31;85.03;98085.31;1754861;80;20195;-82
2022/02/21 03:13:49;;;;;;;;;;;;;;;10.20;85.43;98080.16;1759008;80;20174;-82
2022/02/21 03:16:15;;;;;;;;;;;;;;;10.04;85.89;98081.39;1765550;80;21936;-83
2022/02/21 03:18:40;;;;;;;;;;;;;;;10.14;85.60;98077.53;1762192;80;20108;-82
2022/02/21 03:21:06;;;;;;;;;;;;;;;9.92;86.61;98069.83;1756829;80;20169;-83
2022/02/21 03:23:31;;;;;;;;;;;;;;;10.17;85.89;98068.69;1755474;80;20139;-82
2022/02/21 03:25:57;;;;;;;;;;;;;;;9.98;86.32;98055.84;1764588;80;20147;-83
2022/02/21 03:28:22;;;;;;;;;;;;;;;10.20;85.90;98059.56;1763873;80;21080;-83
2022/02/21 03:30:49;;;;;;;;;;;;;;;10.11;86.36;98039.70;1754713;80;20670;-82
2022/02/21 03:33:14;;;;;;;;;;;;;;;10.02;86.70;98041.23;1736349;80;20232;-82
2022/02/21 03:35:40;;;;;;;;;;;;;;;10.30;85.56;98046.78;1763825;80;20148;-83
2022/02/21 03:38:05;;;;;;;;;;;;;;;10.00;86.78;98034.54;1763886;80;20487;-84
2022/02/21 03:40:31;;;;;;;;;;;;;;;9.99;86.96;98021.04;1771953;80;21011;-83
2022/02/21 03:42:57;;;;;;;;;;;;;;;9.90;87.33;98021.78;1760810;80;21411;-83
2022/02/21 03:45:22;;;;;;;;;;;;;;;9.86;87.75;98012.64;1748572;80;20257;-83
2022/02/21 03:47:49;;;;;;;;;;;;;;;9.92;87.45;98011.83;1760869;80;20166;-83
2022/02/21 03:50:14;;;;;;;;;;;;;;;10.10;87.14;98002.46;1763444;80;20186;-83
2022/02/21 03:52:40;;;;;;;;;;;;;;;9.75;88.04;97997.45;1762279;80;22034;-82
2022/02/21 03:55:06;;;;;;;;;;;;;;;9.85;87.55;98018.92;1761992;80;20205;-82
2022/02/21 03:57:32;;;;;;;;;;;;;;;10.08;87.55;97993.95;1758087;80;20167;-83
2022/02/21 03:59:57;;;;;;;;;;;;;;;9.94;87.26;97983.94;1756241;80;20134;-83
2022/02/21 04:02:23;;;;;;;;;;;;;;;9.91;88.04;97979.88;1763562;80;20123;-83
2022/02/21 04:04:49;;;;;;;;;;;;;;;10.17;86.99;97983.48;1760661;80;21070;-82
2022/02/21 04:07:14;;;;;;;;;;;;;;;10.26;86.72;97967.74;1756305;80;20161;-83
2022/02/21 04:09:40;;;;;;;;;;;;;;;10.09;87.42;97961.31;1768353;80;20199;-83
2022/02/21 04:12:07;;;;;;;;;;;;;;;10.34;86.23;97964.89;1769752;80;20649;-82
2022/02/21 04:14:33;;;;;;;;;;;;;;;10.13;86.91;97949.30;1773126;80;20218;-82
2022/02/21 04:16:59;;;;;;;;;;;;;;;10.24;86.62;97944.20;1758784;80;21153;-83
2022/02/21 04:19:25;;;;;;;;;;;;;;;10.15;86.93;97933.59;1756624;80;20213;-83
2022/02/21 04:21:51;;;;;;;;;;;;;;;10.12;87.41;97945.07;1750384;80;20455;-84
2022/02/21 04:24:16;;;;;;;;;;;;;;;9.98;88.11;97936.38;1751141;80;20617;-83
2022/02/21 04:26:42;;;;;;;;;;;;;;;9.90;88.16;97925.55;1754928;80;20181;-83
2022/02/21 04:29:08;;;;;;;;;;;;;;;10.06;87.79;97910.58;1751032;80;21080;-83
2022/02/21 04:31:33;;;;;;;;;;;;;;;9.87;88.84;97903.56;1752471;80;20166;-83
2022/02/21 04:33:59;;;;;;;;;;;;;;;9.61;89.36;97899.95;1767905;80;20633;-84
2022/02/21 04:36:24;;;;;;;;;;;;;;;9.44;90.62;97882.96;1757523;80;20810;-83
2022/02/21 04:38:51;;;;;;;;;;;;;;;9.56;90.61;97891.06;1755269;80;20462;-83
2022/02/21 04:41:17;;;;;;;;;;;;;;;9.56;91.31;97883.95;1764630;80;21175;-83
2022/02/21 04:43:43;;;;;;;;;;;;;;;9.60;90.94;97872.00;1752831;80;20221;-83
2022/02/21 04:46:08;;;;;;;;;;;;;;;9.28;91.68;97859.19;1766067;80;20155;-83
2022/02/21 04:48:34;;;;;;;;;;;;;;;9.55;90.96;97844.13;1772795;80;20527;-84
2022/02/21 04:51:00;;;;;;;;;;;;;;;9.75;90.23;97839.31;1749477;80;20198;-83
2022/02/21 04:53:26;;;;;;;;;;;;;;;9.69;90.76;97844.41;1760902;80;21066;-83
2022/02/21 04:55:51;;;;;;;;;;;;;;;9.73;90.66;97846.63;1762108;80;20139;-83
2022/02/21 04:58:17;;;;;;;;;;;;;;;9.56;91.07;97864.20;1761797;80;20195;-83
2022/02/21 05:00:43;;;;;;;;;;;;;;;9.63;91.05;97848.36;1768030;79;20192;-84
2022/02/21 05:03:08;;;;;;;;;;;;;;;9.52;92.22;97861.17;1759016;79;20152;-83
2022/02/21 05:05:35;;;;;;;;;;;;;;;9.58;92.05;97847.66;1760768;79;21186;-83
2022/02/21 05:08:00;;;;;;;;;;;;;;;9.87;90.91;97836.34;1767597;79;20467;-84
2022/02/21 05:10:26;;;;;;;;;;;;;;;9.62;91.90;97850.20;1770930;79;20239;-83
2022/02/21 05:12:52;;;;;;;;;;;;;;;9.85;90.77;97852.84;1764491;80;20461;-84
2022/02/21 05:15:17;;;;;;;;;;;;;;;9.75;91.17;97840.12;1768158;80;20107;-84
2022/02/21 05:17:43;;;;;;;;;;;;;;;9.38;93.76;97841.12;1769236;80;21098;-84
2022/02/21 05:20:09;;;;;;;;;;;;;;;9.80;91.82;97837.66;1767076;80;20310;-83
2022/02/21 05:22:35;;;;;;;;;;;;;;;9.71;91.99;97833.66;1766267;80;20160;-83
2022/02/21 05:25:02;;;;;;;;;;;;;;;9.60;92.18;97848.29;1768674;79;20131;-83
2022/02/21 05:27:27;;;;;;;;;;;;;;;9.47;92.83;97835.13;1771848;80;20843;-83
2022/02/21 05:29:53;;;;;;;;;;;;;;;10.01;91.23;97839.21;1765986;79;21102;-84
2022/02/21 05:32:19;;;;;;;;;;;;;;;9.86;91.41;97817.58;1765415;79;20441;-82
2022/02/21 05:34:44;;;;;;;;;;;;;;;10.00;91.07;97830.19;1768537;80;20196;-83
2022/02/21 05:37:10;;;;;;;;;;;;;;;10.12;90.41;97831.67;1765033;79;20455;-82
2022/02/21 05:39:35;;;;;;;;;;;;;;;10.09;90.60;97830.25;1768020;80;20140;-83
2022/02/21 05:42:01;;;;;;;;;;;;;;;9.85;90.99;97821.22;1768630;79;21001;-84
2022/02/21 05:44:27;;;;;;;;;;;;;;;9.98;90.48;97828.28;1764788;80;20171;-84
2022/02/21 05:46:52;;;;;;;;;;;;;;;9.84;91.68;97824.38;1770685;79;20215;-83
2022/02/21 05:49:18;;;;;;;;;;;;;;;9.95;91.40;97823.43;1769085;80;20131;-83
2022/02/21 05:51:43;;;;;;;;;;;;;;;9.73;91.89;97817.64;1768901;79;20149;-84
2022/02/21 05:54:09;;;;;;;;;;;;;;;9.59;92.62;97812.41;1769922;80;21427;-83
2022/02/21 05:56:35;;;;;;;;;;;;;;;9.96;91.47;97813.99;1765960;80;20140;-87
2022/02/21 05:59:00;;;;;;;;;;;;;;;10.02;91.13;97818.92;1769472;79;20124;-88
2022/02/21 06:01:26;;;;;;;;;;;;;;;9.79;92.48;97812.34;1763292;80;20167;-87
2022/02/21 06:03:51;;;;;;;;;;;;;;;9.83;92.20;97807.45;1760889;79;20143;-87
2022/02/21 06:06:17;;;;;;;;;;;;;;;9.89;92.28;97799.50;1757608;79;21157;-88
2022/02/21 06:08:42;;;;;;;;;;;;;;;9.89;92.13;97817.16;1765078;79;21419;-83
2022/02/21 06:11:08;;;;;;;;;;;;;;;9.72;92.72;97800.20;1756145;79;20232;-89
2022/02/21 06:13:34;;;;;;;;;;;;;;;9.92;92.35;97806.20;1762474;80;20459;-89
2022/02/21 06:15:59;;;;;;;;;;;;;;;10.10;91.62;97794.13;1763366;79;20157;-85
2022/02/21 06:18:25;;;;;;;;;;;;;;;10.00;92.12;97787.48;1741565;80;21109;-87
2022/02/21 06:20:51;;;;;;;;;;;;;;;10.03;91.74;97784.42;1765556;79;20200;-84
2022/02/21 06:23:16;;;;;;;;;;;;;;;10.03;92.45;97773.88;1760177;80;20137;-84
2022/02/21 06:25:42;;;;;;;;;;;;;;;9.74;92.58;97788.93;1757298;80;20463;-85
2022/02/21 06:28:08;;;;;;;;;;;;;;;9.98;91.95;97768.44;1757564;80;20163;-84
2022/02/21 06:30:34;;;;;;;;;;;;;;;9.91;92.61;97779.52;1760506;80;21074;-88
2022/02/21 06:33:00;;;;;;;;;;;;;;;9.91;91.64;97786.11;1763885;80;20864;-84
2022/02/21 06:35:25;;;;;;;;;;;;;;;9.89;92.22;97768.39;1762392;79;20510;-86
2022/02/21 06:37:54;;;;;;;;;;;;;;;10.04;91.75;97766.28;1770188;80;20175;-83
2022/02/21 06:40:18;;;;;;;;;;;;;;;9.54;93.74;97771.39;1763069;80;20197;-82
2022/02/21 06:42:44;;;;;;;;;;;;;;;9.93;92.07;97770.91;1760365;80;21128;-86
2022/02/21 06:45:10;;;;;;;;;;;;;;;9.94;92.40;97756.69;1762947;80;20214;-82
2022/02/21 06:47:35;;;;;;;;;;;;;;;9.63;92.94;97763.55;1757077;80;20180;-82
2022/02/21 06:50:04;;;;;;;;;;;;;;;10.05;92.40;97745.50;1761702;79;20128;-83
2022/02/21 06:52:28;;;;;;;;;;;;;;;9.80;92.90;97737.50;1765064;80;20132;-84
2022/02/21 06:54:54;;;;;;;;;;;;;;;9.96;92.33;97736.22;1761752;79;21130;-83
2022/02/21 06:57:20;;;;;;;;;;;;;;;10.04;91.72;97738.59;1764868;80;20467;-84
2022/02/21 06:59:45;;;;;;;;;;;;;;;9.79;92.37;97735.08;1734047;80;20292;-85
2022/02/21 07:02:11;;;;;;;;;;;;;;;10.08;91.67;97730.26;1713103;83;20570;-86
2022/02/21 07:04:36;;;;;;;;;;;;;;;9.75;92.61;97722.04;1716645;83;20159;-83
2022/02/21 07:07:02;;;;;;;;;;;;;;;10.18;91.31;97725.34;1715057;83;21019;-81
2022/02/21 07:09:28;;;;;;;;;;;;;;;10.25;90.84;97704.98;1713733;83;20238;-84
2022/02/21 07:11:53;;;;;;;;;;;;;;;10.07;91.60;97708.37;1714795;81;20169;-84
2022/02/21 07:14:22;;;;;;;;;;;;;;;10.14;91.20;97720.18;1712954;83;20132;-83
2022/02/21 07:16:47;;;;;;;;;;;;;;;10.01;91.54;97720.56;1714798;81;20419;-84
2022/02/21 07:19:12;;;;;;;;;;;;;;;10.17;91.02;97719.23;1726485;81;22122;-83
2022/02/21 07:21:38;;;;;;;;;;;;;;;9.91;92.06;97714.94;1727586;82;20262;-83
2022/02/21 07:24:04;;;;;;;;;;;;;;;10.01;91.66;97725.84;1745738;81;20173;-84
2022/02/21 07:26:30;;;;;;;;;;;;;;;10.11;91.82;97706.10;1715853;82;20227;-83
2022/02/21 07:28:55;;;;;;;;;;;;;;;9.97;91.82;97699.59;1723394;83;20160;-84
2022/02/21 07:31:23;;;;;;;;;;;;;;;10.13;91.71;97717.23;1721107;83;22169;-83
2022/02/21 07:33:48;;;;;;;;;;;;;;;10.10;91.59;97721.61;1719883;83;20731;-83
2022/02/21 07:36:14;;;;;;;;;;;;;;;9.88;92.40;97704.81;1722865;82;20163;-83
2022/02/21 07:38:39;;;;;;;;;;;;;;;10.12;91.49;97726.19;1726191;81;20528;-83
2022/02/21 07:41:05;;;;;;;;;;;;;;;10.17;91.07;97725.03;1720767;83;20161;-84
2022/02/21 07:43:30;;;;;;;;;;;;;;;10.09;91.28;97726.61;1721723;81;21203;-84
2022/02/21 07:45:56;;;;;;;;;;;;;;;10.24;91.06;97732.39;1725767;83;20143;-84
2022/02/21 07:48:21;;;;;;;;;;;;;;;10.03;91.75;97726.42;1722174;83;20492;-84
2022/02/21 07:50:47;;;;;;;;;;;;;;;10.27;90.73;97708.23;1721406;83;20207;-84
2022/02/21 07:53:13;;;;;;;;;;;;;;;10.14;91.13;97728.89;1723163;82;20155;-83
2022/02/21 07:55:38;;;;;;;;;;;;;;;10.35;90.28;97713.27;1749616;81;22404;-83
2022/02/21 07:58:04;;;;;;;;;;;;;;;10.25;90.54;97714.20;1709950;83;20179;-82
2022/02/21 08:00:29;;;;;;;;;;;;;;;10.30;90.25;97728.91;1735475;81;20202;-83
2022/02/21 08:02:55;;;;;;;;;;;;;;;10.23;90.26;97722.86;1754723;80;20102;-82
2022/02/21 08:05:21;;;;;;;;;;;;;;;10.48;89.73;97713.66;1760312;79;20249;-80
2022/02/21 08:07:46;;;;;;;;;;;;;;;10.50;88.75;97712.13;1760947;80;21627;-82
2022/02/21 08:10:12;;;;;;;;;;;;;;;10.53;88.88;97709.05;1763692;79;20168;-83
2022/02/21 08:12:38;;;;;;;;;;;;;;;10.62;88.40;97711.72;1761551;80;20152;-83
2022/02/21 08:15:04;;;;;;;;;;;;;;;10.86;87.59;97721.14;1764264;80;20574;-84
2022/02/21 08:17:45;;;;;;;;;;;;;;;10.80;87.30;97740.48;1763442;80;20096;-83
2022/02/21 08:20:13;;;;;;;;;;;;;;;10.60;87.45;97748.08;1770535;80;21209;-83
2022/02/21 08:22:38;;;;;;;;;;;;;;;10.70;87.68;97723.31;1766811;80;20127;-84
2022/02/21 08:25:04;;;;;;;;;;;;;;;10.70;86.67;97719.34;1755591;80;20131;-83
2022/02/21 08:27:30;;;;;;;;;;;;;;;10.96;85.64;97733.34;1762282;80;20220;-82
2022/02/21 08:29:56;;;;;;;;;;;;;;;10.85;86.11;97751.23;1760411;80;20866;-83
2022/02/21 08:32:21;;;;;;;;;;;;;;;10.93;84.99;97732.45;1752124;80;22394;-84
2022/02/21 08:34:47;;;;;;;;;;;;;;;10.94;85.09;97740.69;1766961;79;20170;-82
2022/02/21 08:37:13;;;;;;;;;;;;;;;10.98;84.54;97733.92;1764559;79;20155;-83
2022/02/21 08:39:40;;;;;;;;;;;;;;;10.70;85.47;97736.51;1766745;80;20521;-82
2022/02/21 08:42:05;;;;;;;;;;;;;;;11.08;84.66;97732.12;1764045;80;20497;-80
2022/02/21 08:44:31;;;;;;;;;;;;;;;11.11;83.21;97719.27;1766543;80;21143;-82
2022/02/21 08:46:58;;;;;;;;;;;;;;;11.09;83.55;97731.90;1762865;80;20202;-83
2022/02/21 08:49:23;;;;;;;;;;;;;;;10.88;84.03;97721.75;1757274;79;20199;-82
2022/02/21 08:51:49;;;;;;;;;;;;;;;10.87;83.62;97733.33;1761410;80;20193;-82
2022/02/21 08:54:17;;;;;;;;;;;;;;;11.05;83.41;97714.06;1762021;80;20149;-81
2022/02/21 08:56:42;;;;;;;;;;;;;;;11.20;82.59;97716.33;1768104;80;20140;-82
2022/02/21 08:59:08;;;;;;;;;;;;;;;10.95;82.87;97727.75;1767094;79;20264;-84
2022/02/21 09:01:33;;;;;;;;;;;;;;;11.18;82.74;97726.31;1763862;80;20228;-83
2022/02/21 09:03:59;;;;;;;;;;;;;;;11.01;83.35;97726.88;1760335;80;20112;-80
2022/02/21 09:06:24;;;;;;;;;;;;;;;11.07;83.07;97718.08;1764126;80;20149;-83
2022/02/21 09:08:50;;;;;;;;;;;;;;;10.86;82.77;97706.62;1766110;79;21142;-83
2022/02/21 09:11:15;;;;;;;;;;;;;;;11.10;81.60;97715.00;1759620;79;20153;-82
2022/02/21 09:13:41;;;;;;;;;;;;;;;11.10;81.92;97712.89;1758189;80;20146;-82
2022/02/21 09:16:07;;;;;;;;;;;;;;;11.25;81.25;97726.54;1772540;79;20489;-79
2022/02/21 09:18:32;;;;;;;;;;;;;;;11.04;81.50;97721.69;1757514;79;20148;-81
2022/02/21 09:20:59;;;;;;;;;;;;;;;11.06;81.50;97723.59;1762762;79;21117;-81
2022/02/21 09:23:24;;;;;;;;;;;;;;;11.27;80.52;97711.79;1757265;79;20166;-80
2022/02/21 09:25:50;;;;;;;;;;;;;;;11.05;80.91;97722.79;1762290;80;20149;-79
2022/02/21 09:28:15;;;;;;;;;;;;;;;11.49;79.77;97718.74;1765146;80;20690;-81
2022/02/21 09:30:41;;;;;;;;;;;;;;;11.22;79.90;97730.14;1765488;79;20159;-81
2022/02/21 09:33:07;;;;;;;;;;;;;;;11.26;79.81;97730.81;1766221;80;22606;-82
2022/02/21 09:35:32;;;;;;;;;;;;;;;11.17;79.95;97726.02;1766053;79;20104;-82
2022/02/21 09:37:58;;;;;;;;;;;;;;;11.57;78.91;97718.95;1762658;79;20199;-80
2022/02/21 09:40:23;;;;;;;;;;;;;;;11.57;77.94;97728.20;1763259;79;21383;-82
2022/02/21 09:42:49;;;;;;;;;;;;;;;11.81;77.40;97744.47;1768408;79;20159;-83
2022/02/21 09:45:18;;;;;;;;;;;;;;;11.40;78.07;97745.97;1764079;80;22097;-84
2022/02/21 09:47:43;;;;;;;;;;;;;;;11.55;77.62;97781.81;1769371;80;20121;-81
2022/02/21 09:50:09;;;;;;;;;;;;;;;11.72;77.55;97747.13;1767730;80;20430;-83
2022/02/21 09:52:35;;;;;;;;;;;;;;;11.37;77.67;97749.05;1763617;80;20137;-82
2022/02/21 09:55:00;;;;;;;;;;;;;;;11.59;77.56;97744.64;1764347;80;20145;-83
2022/02/21 09:57:26;;;;;;;;;;;;;;;11.96;76.50;97749.90;1765492;80;21097;-83
2022/02/21 09:59:52;;;;;;;;;;;;;;;11.60;76.57;97760.80;1764658;80;20179;-83
2022/02/21 10:02:29;;;;;;;;;;;;;;;11.45;76.57;97760.67;1763552;80;20143;-82
2022/02/21 10:05:13;;;;;;;;;;;;;;;11.75;75.50;97774.45;1759604;79;20913;-82
2022/02/21 10:07:39;;;;;;;;;;;;;;;11.60;75.63;97744.94;1763863;80;20164;-81
2022/02/21 10:10:06;;;;;;;;;;;;;;;11.79;74.79;97741.25;1768346;79;21089;-82
2022/02/21 10:12:31;;;;;;;;;;;;;;;11.67;75.20;97748.32;1761869;80;20131;-81
2022/02/21 10:14:59;;;;;;;;;;;;;;;11.93;74.26;97759.60;1751649;80;20112;-82
2022/02/21 10:17:25;;;;;;;;;;;;;;;11.94;74.29;97732.13;1753691;80;20157;-82
2022/02/21 10:20:03;;;;;;;;;;;;;;;12.12;72.78;97753.24;1757406;80;21029;-82
2022/02/21 10:22:32;;;;;;;;;;;;;;;12.24;73.22;97759.08;1770452;80;21154;-82
2022/02/21 10:24:56;;;;;;;;;;;;;;;12.04;73.10;97758.83;1766430;79;20254;-81
2022/02/21 10:27:24;;;;;;;;;;;;;;;11.93;72.96;97763.07;1761866;79;20145;-80
2022/02/21 10:30:00;;;;;;;;;;;;;;;11.97;72.96;97763.42;1761977;80;20519;-81
2022/02/21 10:32:30;;;;;;;;;;;;;;;11.78;73.55;97778.49;1761265;80;20193;-83
2022/02/21 10:35:16;;;;;;;;;;;;;;;12.13;72.38;97763.30;1759392;80;21164;-82
2022/02/21 10:37:44;;;;;;;;;;;;;;;12.13;71.63;97772.03;1727546;80;38828;-82
2022/02/21 10:40:15;;;;;;;;;;;;;;;12.10;70.69;97767.19;1758038;80;20164;-79
2022/02/21 10:42:41;;;;;;;;;;;;;;;11.67;70.56;97776.08;1757042;80;20221;-82
2022/02/21 10:45:18;;;;;;;;;;;;;;;12.29;69.13;97764.00;1763045;80;20312;-81
2022/02/21 10:48:02;;;;;;;;;;;;;;;12.08;69.02;97745.45;1756642;80;21145;-81
2022/02/21 10:50:28;;;;;;;;;;;;;;;12.21;68.62;97746.60;1767746;80;20436;-83
2022/02/21 10:52:53;;;;;;;;;;;;;;;12.23;68.72;97756.13;1774595;80;20180;-83
2022/02/21 10:55:19;;;;;;;;;;;;;;;12.06;67.75;97752.82;1767585;80;21309;-82
2022/02/21 10:57:45;;;;;;;;;;;;;;;12.16;67.56;97757.03;1762165;79;20112;-82
2022/02/21 11:00:11;;;;;;;;;;;;;;;12.24;67.53;97764.38;1750663;80;21081;-85
2022/02/21 11:02:40;;;;;;;;;;;;;;;12.38;66.44;97779.02;1772749;80;20214;-79
2022/02/21 11:05:09;;;;;;;;;;;;;;;12.27;67.86;97767.36;1760698;80;20118;-81
2022/02/21 11:07:45;;;;;;;;;;;;;;;12.28;66.67;97776.13;1757778;80;20143;-82
2022/02/21 11:10:11;;;;;;;;;;;;;;;12.36;66.21;97793.80;1761919;80;20222;-83
2022/02/21 11:12:39;;;;;;;;;;;;;;;11.79;66.75;97804.71;1768077;80;21904;-82
2022/02/21 11:15:06;;;;;;;;;;;;;;;11.69;67.04;97791.20;1758853;80;20224;-83
2022/02/21 11:17:31;;;;;;;;;;;;;;;11.90;66.01;97794.40;1755286;80;20083;-80
2022/02/21 11:19:57;;;;;;;;;;;;;;;11.89;66.08;97791.48;1768349;80;20591;-82
2022/02/21 11:22:23;;;;;;;;;;;;;;;11.90;66.29;97830.93;1758597;80;20154;-81
2022/02/21 11:24:51;;;;;;;;;;;;;;;11.67;66.95;97825.78;1753122;80;21984;-83
2022/02/21 11:27:43;;;;;;;;;;;;;;;11.40;68.40;97819.95;1761158;80;20218;-84
2022/02/21 11:30:11;;;;;;;;;;;;;;;11.30;70.18;97838.17;1749291;80;20169;-81
2022/02/21 11:32:40;;;;;;;;;;;;;;;11.12;71.81;97855.61;1757661;80;20945;-79
2022/02/21 11:35:18;;;;;;;;;;;;;;;11.06;74.68;97860.92;1755235;80;20657;-82
2022/02/21 11:37:46;;;;;;;;;;;;;;;10.82;77.54;97870.46;1767928;80;21117;-80
2022/02/21 11:40:16;;;;;;;;;;;;;;;10.32;79.61;97894.88;1756683;80;20221;-80
2022/02/21 11:42:44;;;;;;;;;;;;;;;9.99;81.27;97926.95;1769105;80;20143;-82
2022/02/21 11:45:24;;;;;;;;;;;;;;;9.77;81.77;97917.66;1755721;80;20395;-81
2022/02/21 11:47:53;;;;;;;;;;;;;;;9.65;82.78;97895.91;1767244;79;20189;-82
2022/02/21 11:50:21;;;;;;;;;;;;;;;9.48;83.45;97886.81;1751076;80;21208;-80
2022/02/21 11:52:50;;;;;;;;;;;;;;;9.56;84.29;97901.08;1756302;80;20502;-83
2022/02/21 11:55:38;;;;;;;;;;;;;;;9.25;84.95;97920.95;1759716;80;20251;-83
2022/02/21 11:58:22;;;;;;;;;;;;;;;9.47;84.13;97902.31;1762179;80;20176;-84
2022/02/21 12:00:48;;;;;;;;;;;;;;;9.36;83.98;97918.74;1765918;80;20227;-85
2022/02/21 12:03:22;;;;;;;;;;;;;;;9.13;84.27;97919.94;1762388;80;21048;-86
2022/02/21 12:05:52;;;;;;;;;;;;;;;9.37;83.39;97924.30;1769890;79;20286;-84
2022/02/21 12:08:33;;;;;;;;;;;;;;;9.30;83.87;97955.39;1738364;80;20613;-82
2022/02/21 12:11:17;;;;;;;;;;;;;;;9.11;85.27;97956.20;1758025;80;20312;-81
2022/02/21 12:13:53;;;;;;;;;;;;;;;9.14;85.37;97936.05;1770284;80;20176;-83
2022/02/21 12:16:20;;;;;;;;;;;;;;;8.96;85.59;97937.95;1762312;79;21159;-83
2022/02/21 12:18:47;;;;;;;;;;;;;;;8.96;84.98;97940.09;1762433;80;20156;-82
2022/02/21 12:21:28;;;;;;;;;;;;;;;8.92;85.20;97945.44;1766462;80;20513;-85
2022/02/21 12:24:01;;;;;;;;;;;;;;;8.83;84.87;97949.27;1758140;79;20180;-82
2022/02/21 12:26:36;;;;;;;;;;;;;;;8.82;83.95;97927.09;1771504;80;20124;-83
2022/02/21 12:29:20;;;;;;;;;;;;;;;9.01;83.83;97938.66;1760215;80;22020;-81
2022/02/21 12:31:57;;;;;;;;;;;;;;;9.01;84.41;97923.70;1766548;79;20806;-80
2022/02/21 12:34:24;;;;;;;;;;;;;;;8.93;83.91;97937.86;1758299;79;20268;-83
2022/02/21 12:36:51;;;;;;;;;;;;;;;9.09;83.47;97954.25;1757688;80;20596;-82
2022/02/21 12:39:23;;;;;;;;;;;;;;;9.16;82.70;97945.88;1754110;80;20170;-81
2022/02/21 12:41:45;;;;;;;;;;;;;;;8.97;82.15;97958.80;1760524;80;20188;-81
2022/02/21 12:44:11;;;;;;;;;;;;;;;9.13;81.77;97963.39;1762234;80;20459;-81
2022/02/21 12:46:39;;;;;;;;;;;;;;;9.14;81.33;97963.70;1766732;80;20282;-81
2022/02/21 12:49:07;;;;;;;;;;;;;;;9.08;80.26;97951.34;1761233;80;20800;-82